createdAt,value
2019-02-05T00:01:46.209Z,2.74
2019-02-05T00:04:15.665Z,2.80
2019-02-05T00:06:44.914Z,2.90
2019-02-05T00:09:14.453Z,2.88
2019-02-05T00:11:43.747Z,2.87
2019-02-05T00:14:13.250Z,2.83
2019-02-05T00:16:42.976Z,2.72
2019-02-05T00:19:12.280Z,2.75
2019-02-05T00:21:41.764Z,2.63
2019-02-05T00:24:11.100Z,2.61
2019-02-05T00:26:40.730Z,2.66
2019-02-05T00:29:09.914Z,2.59
2019-02-05T00:31:39.596Z,2.55
2019-02-05T00:34:09.024Z,2.55
2019-02-05T00:36:38.291Z,2.54
2019-02-05T00:39:09.288Z,2.54
2019-02-05T00:41:38.551Z,2.57
2019-02-05T00:44:07.825Z,2.59
2019-02-05T00:46:37.145Z,2.67
2019-02-05T00:49:06.425Z,2.60
2019-02-05T00:51:35.843Z,2.59
2019-02-05T00:54:05.648Z,2.63
2019-02-05T00:56:34.857Z,2.80
2019-02-05T00:59:04.474Z,2.60
2019-02-05T01:01:36.180Z,2.74
2019-02-05T01:04:06.228Z,2.60
2019-02-05T01:06:35.434Z,2.60
2019-02-05T01:09:07.318Z,2.59
2019-02-05T01:11:36.821Z,2.59
2019-02-05T01:14:06.313Z,2.51
2019-02-05T01:16:35.639Z,2.55
2019-02-05T01:19:04.780Z,2.50
2019-02-05T01:21:34.162Z,2.53
2019-02-05T01:24:03.426Z,2.46
2019-02-05T01:26:32.715Z,2.44
2019-02-05T01:29:01.963Z,2.41
2019-02-05T01:31:31.385Z,2.44
2019-02-05T01:34:00.815Z,2.46
2019-02-05T01:36:30.057Z,2.43
2019-02-05T01:38:59.464Z,2.43
2019-02-05T01:41:30.859Z,2.40
2019-02-05T01:44:00.129Z,2.42
2019-02-05T01:46:29.430Z,2.39
2019-02-05T01:48:58.788Z,2.40
2019-02-05T01:51:28.110Z,2.56
2019-02-05T01:53:57.526Z,2.47
2019-02-05T01:56:26.918Z,2.41
2019-02-05T01:58:56.295Z,2.47
2019-02-05T02:01:25.713Z,2.50
2019-02-05T02:03:54.991Z,2.45
2019-02-05T02:06:24.860Z,2.43
2019-02-05T02:08:54.745Z,2.44
2019-02-05T02:11:24.448Z,2.43
2019-02-05T02:13:53.815Z,2.43
2019-02-05T02:16:23.016Z,2.50
2019-02-05T02:18:52.247Z,2.50
2019-02-05T02:21:21.525Z,2.45
2019-02-05T02:23:50.851Z,2.46
2019-02-05T02:26:20.211Z,2.49
2019-02-05T02:28:49.576Z,2.46
2019-02-05T02:31:18.757Z,2.49
2019-02-05T02:33:48.026Z,2.51
2019-02-05T02:36:17.291Z,2.49
2019-02-05T02:38:46.516Z,2.53
2019-02-05T02:41:15.850Z,2.58
2019-02-05T02:43:45.164Z,2.57
2019-02-05T02:46:14.403Z,2.57
2019-02-05T02:48:43.789Z,2.58
2019-02-05T02:51:13.027Z,2.61
2019-02-05T02:53:42.360Z,2.63
2019-02-05T02:56:11.773Z,2.66
2019-02-05T02:58:41.068Z,2.67
2019-02-05T03:01:10.443Z,2.69
2019-02-05T03:03:39.805Z,2.69
2019-02-05T03:06:09.258Z,2.67
2019-02-05T03:08:38.494Z,2.67
2019-02-05T03:11:07.887Z,2.71
2019-02-05T03:13:37.442Z,2.70
2019-02-05T03:16:06.737Z,2.71
2019-02-05T03:18:36.107Z,2.75
2019-02-05T03:21:05.403Z,2.74
2019-02-05T03:23:35.590Z,2.68
2019-02-05T03:26:04.833Z,2.71
2019-02-05T03:28:34.104Z,2.74
2019-02-05T03:31:03.894Z,2.74
2019-02-05T03:33:33.137Z,2.76
2019-02-05T03:36:02.462Z,2.78
2019-02-05T03:38:31.711Z,2.81
2019-02-05T03:41:06.232Z,2.81
2019-02-05T03:43:39.175Z,2.78
2019-02-05T03:46:16.163Z,2.80
2019-02-05T03:48:47.648Z,2.86
2019-02-05T03:51:47.798Z,2.82
2019-02-05T03:54:53.683Z,2.84
2019-02-05T03:58:09.536Z,2.78
2019-02-05T04:01:23.076Z,2.76
2019-02-05T04:04:24.929Z,2.78
2019-02-05T04:07:54.272Z,2.87
2019-02-05T04:10:58.268Z,2.87
2019-02-05T04:14:06.456Z,2.83
2019-02-05T04:17:34.565Z,2.78
2019-02-05T04:20:43.460Z,2.86
2019-02-05T04:24:05.812Z,2.86
2019-02-05T04:27:17.996Z,2.85
2019-02-05T04:30:14.235Z,2.80
2019-02-05T04:33:05.842Z,2.81
2019-02-05T04:36:07.990Z,2.76
2019-02-05T04:39:29.010Z,2.82
2019-02-05T04:42:13.161Z,2.76
2019-02-05T04:45:33.364Z,2.84
2019-02-05T04:48:30.973Z,2.85
2019-02-05T04:51:40.833Z,2.79
2019-02-05T04:54:52.747Z,2.77
2019-02-05T04:58:05.141Z,2.81
2019-02-05T05:00:57.845Z,2.85
2019-02-05T05:04:21.438Z,2.81
2019-02-05T05:07:06.012Z,2.89
2019-02-05T05:09:54.925Z,2.80
2019-02-05T05:12:24.931Z,2.83
2019-02-05T05:14:54.330Z,2.82
2019-02-05T05:17:23.866Z,2.85
2019-02-05T05:19:53.511Z,2.81
2019-02-05T05:22:23.007Z,2.84
2019-02-05T05:24:52.443Z,2.80
2019-02-05T05:27:22.547Z,2.90
2019-02-05T05:29:52.074Z,2.83
2019-02-05T05:32:21.874Z,2.84
2019-02-05T05:34:51.221Z,2.93
2019-02-05T05:37:18.846Z,2.85
2019-02-05T05:39:48.101Z,2.84
2019-02-05T05:42:17.515Z,2.87
2019-02-05T05:44:48.130Z,2.89
2019-02-05T05:47:17.535Z,2.92
2019-02-05T05:49:46.925Z,2.84
2019-02-05T05:52:16.281Z,2.86
2019-02-05T05:54:45.800Z,2.89
2019-02-05T05:57:15.038Z,2.89
2019-02-05T05:59:46.036Z,2.90
2019-02-05T06:02:16.030Z,2.91
2019-02-05T06:04:45.286Z,2.87
2019-02-05T06:07:14.657Z,2.95
2019-02-05T06:09:44.411Z,2.90
2019-02-05T06:12:13.869Z,2.92
2019-02-05T06:14:43.253Z,2.93
2019-02-05T06:17:12.674Z,2.92
2019-02-05T06:19:42.067Z,2.96
2019-02-05T06:22:11.433Z,2.92
2019-02-05T06:24:40.694Z,2.90
2019-02-05T06:27:10.029Z,3.00
2019-02-05T06:29:39.373Z,3.01
2019-02-05T06:32:08.952Z,2.97
2019-02-05T06:34:38.222Z,3.09
2019-02-05T06:37:08.577Z,3.03
2019-02-05T06:39:38.026Z,2.97
2019-02-05T06:42:07.317Z,3.04
2019-02-05T06:44:36.707Z,3.01
2019-02-05T06:47:06.354Z,3.00
2019-02-05T06:49:35.847Z,2.96
2019-02-05T06:52:05.272Z,2.96
2019-02-05T06:54:34.561Z,3.05
2019-02-05T06:57:03.881Z,3.03
2019-02-05T06:59:33.161Z,2.96
2019-02-05T07:02:02.375Z,2.93
2019-02-05T07:04:31.801Z,3.00
2019-02-05T07:07:01.482Z,2.96
2019-02-05T07:09:30.661Z,3.02
2019-02-05T07:11:59.959Z,2.99
2019-02-05T07:14:29.211Z,2.97
2019-02-05T07:16:58.587Z,3.03
2019-02-05T07:19:28.058Z,3.05
2019-02-05T07:21:57.338Z,3.04
2019-02-05T07:24:26.598Z,3.02
2019-02-05T07:26:55.937Z,3.01
2019-02-05T07:29:25.335Z,3.07
2019-02-05T07:31:54.554Z,3.01
2019-02-05T07:34:24.755Z,3.06
2019-02-05T07:36:57.413Z,3.08
2019-02-05T07:39:27.666Z,3.15
2019-02-05T07:41:57.057Z,3.10
2019-02-05T07:44:26.386Z,3.07
2019-02-05T07:46:55.646Z,3.08
2019-02-05T07:49:24.968Z,3.07
2019-02-05T07:51:54.530Z,3.15
2019-02-05T07:54:23.866Z,3.14
2019-02-05T07:56:53.242Z,3.12
2019-02-05T07:59:22.637Z,3.10
2019-02-05T08:01:51.929Z,3.10
2019-02-05T08:04:21.203Z,3.12
2019-02-05T08:06:52.468Z,3.16
2019-02-05T08:09:22.122Z,3.26
2019-02-05T08:11:51.421Z,3.17
2019-02-05T08:14:20.758Z,3.24
2019-02-05T08:16:50.009Z,3.29
2019-02-05T08:19:19.289Z,3.26
2019-02-05T08:21:48.633Z,3.25
2019-02-05T08:24:17.844Z,3.27
2019-02-05T08:26:47.073Z,3.28
2019-02-05T08:29:21.701Z,3.28
2019-02-05T08:31:47.436Z,3.37
2019-02-05T08:34:16.671Z,3.38
2019-02-05T08:36:45.952Z,3.35
2019-02-05T08:39:17.906Z,3.33
2019-02-05T08:41:46.205Z,3.35
2019-02-05T08:44:15.789Z,3.41
2019-02-05T08:46:45.029Z,3.47
2019-02-05T08:49:14.429Z,3.47
2019-02-05T08:51:43.649Z,3.46
2019-02-05T08:54:12.952Z,3.46
2019-02-05T08:56:42.212Z,3.53
2019-02-05T08:59:11.508Z,3.52
2019-02-05T09:01:41.128Z,3.54
2019-02-05T09:04:10.379Z,3.56
2019-02-05T09:06:39.699Z,3.51
2019-02-05T09:09:10.039Z,3.53
2019-02-05T09:11:39.540Z,3.59
2019-02-05T09:14:10.721Z,3.62
2019-02-05T09:16:40.014Z,3.60
2019-02-05T09:19:10.070Z,3.64
2019-02-05T09:21:39.329Z,3.65
2019-02-05T09:24:08.717Z,3.63
2019-02-05T09:26:38.110Z,3.77
2019-02-05T09:29:07.484Z,3.71
2019-02-05T09:31:36.825Z,3.70
2019-02-05T09:34:06.276Z,3.75
2019-02-05T09:36:35.736Z,3.80
2019-02-05T09:39:07.266Z,3.90
2019-02-05T09:41:36.737Z,3.89
2019-02-05T09:44:06.139Z,3.93
2019-02-05T09:46:35.516Z,4.01
2019-02-05T09:49:05.359Z,3.97
2019-02-05T09:51:34.828Z,3.97
2019-02-05T09:54:04.289Z,3.94
2019-02-05T09:56:33.774Z,3.94
2019-02-05T09:59:03.202Z,4.03
2019-02-05T10:01:32.468Z,4.01
2019-02-05T10:04:01.734Z,4.11
2019-02-05T10:06:31.316Z,4.14
2019-02-05T10:09:00.695Z,4.22
2019-02-05T10:11:30.044Z,4.28
2019-02-05T10:13:59.391Z,4.27
2019-02-05T10:16:28.850Z,4.31
2019-02-05T10:18:58.898Z,4.39
2019-02-05T10:21:28.515Z,4.39
2019-02-05T10:23:57.775Z,4.31
2019-02-05T10:26:27.048Z,4.30
2019-02-05T10:28:56.346Z,4.35
2019-02-05T10:31:25.609Z,4.37
2019-02-05T10:33:55.566Z,4.43
2019-02-05T10:36:24.972Z,4.35
2019-02-05T10:38:54.361Z,4.36
2019-02-05T10:41:23.693Z,4.45
2019-02-05T10:43:53.038Z,4.52
2019-02-05T10:46:22.372Z,4.55
2019-02-05T10:48:51.750Z,4.66
2019-02-05T10:51:21.181Z,4.65
2019-02-05T10:53:50.833Z,4.65
2019-02-05T10:56:20.249Z,4.73
2019-02-05T10:58:49.712Z,4.76
2019-02-05T11:01:19.074Z,4.56
2019-02-05T11:03:48.406Z,4.43
2019-02-05T11:06:19.981Z,4.38
2019-02-05T11:08:48.769Z,4.45
2019-02-05T11:11:18.111Z,4.46
2019-02-05T11:13:47.406Z,4.59
2019-02-05T11:16:16.730Z,4.66
2019-02-05T11:18:46.050Z,4.67
2019-02-05T11:21:15.312Z,4.69
2019-02-05T11:23:44.545Z,4.70
2019-02-05T11:26:14.311Z,4.89
2019-02-05T11:28:44.507Z,4.92
2019-02-05T11:31:13.839Z,4.85
2019-02-05T11:33:43.200Z,4.97
2019-02-05T11:36:12.616Z,4.97
2019-02-05T11:38:42.007Z,4.94
2019-02-05T11:41:13.669Z,4.98
2019-02-05T11:43:42.427Z,4.92
2019-02-05T11:46:11.908Z,4.85
2019-02-05T11:48:41.334Z,4.70
2019-02-05T11:51:10.687Z,4.80
2019-02-05T11:53:39.957Z,4.86
2019-02-05T11:56:09.196Z,4.88
2019-02-05T11:58:38.914Z,4.81
2019-02-05T12:01:21.327Z,4.87
2019-02-05T12:03:50.777Z,4.83
2019-02-05T12:06:19.969Z,4.76
2019-02-05T12:08:49.411Z,4.75
2019-02-05T12:11:18.721Z,4.71
2019-02-05T12:13:48.276Z,4.72
2019-02-05T12:16:17.703Z,4.78
2019-02-05T12:18:49.889Z,4.81
2019-02-05T12:21:19.230Z,4.80
2019-02-05T12:23:48.896Z,4.74
2019-02-05T12:26:18.186Z,4.78
2019-02-05T12:28:47.537Z,4.80
2019-02-05T12:31:17.833Z,4.88
2019-02-05T12:33:47.185Z,4.95
2019-02-05T12:36:16.529Z,4.95
2019-02-05T12:38:45.781Z,5.08
2019-02-05T12:41:15.120Z,5.21
2019-02-05T12:43:44.467Z,5.22
2019-02-05T12:46:13.871Z,5.15
2019-02-05T12:48:43.070Z,5.15
2019-02-05T12:51:12.440Z,5.26
2019-02-05T12:53:41.808Z,5.16
2019-02-05T12:56:11.117Z,5.20
2019-02-05T12:58:40.441Z,5.16
2019-02-05T13:01:09.930Z,5.15
2019-02-05T13:03:39.187Z,5.22
2019-02-05T13:06:08.555Z,5.16
2019-02-05T13:08:37.818Z,5.13
2019-02-05T13:11:07.259Z,5.11
2019-02-05T13:13:36.556Z,5.08
2019-02-05T13:16:06.183Z,5.13
2019-02-05T13:18:35.581Z,5.17
2019-02-05T13:21:04.941Z,5.08
2019-02-05T13:23:34.356Z,5.08
2019-02-05T13:26:03.629Z,4.97
2019-02-05T13:28:35.902Z,4.88
2019-02-05T13:31:08.104Z,4.87
2019-02-05T13:33:36.820Z,4.92
2019-02-05T13:36:10.248Z,4.98
2019-02-05T13:38:39.472Z,4.94
2019-02-05T13:41:08.788Z,5.04
2019-02-05T13:43:40.107Z,5.07
2019-02-05T13:46:09.510Z,5.07
2019-02-05T13:48:39.009Z,5.08
2019-02-05T13:51:27.354Z,5.05
2019-02-05T13:53:56.903Z,5.07
2019-02-05T13:56:26.254Z,5.18
2019-02-05T13:58:56.027Z,5.20
2019-02-05T14:01:25.509Z,5.25
2019-02-05T14:04:13.898Z,5.20
2019-02-05T14:06:43.355Z,5.18
2019-02-05T14:09:13.781Z,5.18
2019-02-05T14:11:43.504Z,5.20
2019-02-05T14:14:12.830Z,5.12
2019-02-05T14:17:01.320Z,5.09
2019-02-05T14:19:30.923Z,5.03
2019-02-05T14:22:00.518Z,5.03
2019-02-05T14:24:30.036Z,5.07
2019-02-05T14:26:59.405Z,5.06
2019-02-05T14:29:28.888Z,5.05
2019-02-05T14:31:58.583Z,5.05
2019-02-05T14:34:46.987Z,5.03
2019-02-05T14:37:16.529Z,4.99
2019-02-05T14:39:48.872Z,4.95
2019-02-05T14:42:17.175Z,4.90
2019-02-05T14:44:46.620Z,4.86
2019-02-05T14:47:16.059Z,4.84
2019-02-05T14:50:05.434Z,4.83
2019-02-05T14:53:10.219Z,4.82
2019-02-05T14:55:43.080Z,4.84
2019-02-05T14:58:15.512Z,4.79
2019-02-05T15:00:45.445Z,4.84
2019-02-05T15:03:15.792Z,4.89
2019-02-05T15:06:04.374Z,4.87
2019-02-05T15:08:34.058Z,4.84
2019-02-05T15:11:03.603Z,4.85
2019-02-05T15:13:33.319Z,4.79
2019-02-05T15:16:21.924Z,4.81
2019-02-05T15:19:10.423Z,4.82
2019-02-05T15:21:40.112Z,4.77
2019-02-05T15:24:09.877Z,4.75
2019-02-05T15:26:39.561Z,4.73
2019-02-05T15:29:09.161Z,4.70
2019-02-05T15:31:39.039Z,4.69
2019-02-05T15:34:29.335Z,4.68
2019-02-05T15:36:59.198Z,4.61
2019-02-05T15:39:28.718Z,4.59
2019-02-05T15:41:58.598Z,4.54
2019-02-05T15:44:28.142Z,4.50
2019-02-05T15:46:57.786Z,4.53
2019-02-05T15:49:27.395Z,4.58
2019-02-05T15:51:57.173Z,4.55
2019-02-05T15:54:26.887Z,4.55
2019-02-05T15:56:56.500Z,4.56
2019-02-05T15:59:26.249Z,4.54
2019-02-05T16:02:05.918Z,4.54
2019-02-05T16:04:27.454Z,4.52
2019-02-05T16:06:57.185Z,4.47
2019-02-05T16:09:26.749Z,4.48
2019-02-05T16:11:56.416Z,4.43
2019-02-05T16:14:25.957Z,4.47
2019-02-05T16:16:55.625Z,4.42
2019-02-05T16:19:25.290Z,4.42
2019-02-05T16:21:54.991Z,4.41
2019-02-05T16:24:24.655Z,4.39
2019-02-05T16:26:54.303Z,4.37
2019-02-05T16:29:23.997Z,4.37
2019-02-05T16:31:53.498Z,4.39
2019-02-05T16:34:23.063Z,4.40
2019-02-05T16:36:52.730Z,4.39
2019-02-05T16:39:22.403Z,4.40
2019-02-05T16:41:51.956Z,4.39
2019-02-05T16:44:21.572Z,4.38
2019-02-05T16:46:51.242Z,4.37
2019-02-05T16:49:22.404Z,4.39
2019-02-05T16:51:52.388Z,4.39
2019-02-05T16:54:22.467Z,4.38
2019-02-05T16:56:54.649Z,4.45
2019-02-05T16:59:24.283Z,4.47
2019-02-05T17:01:57.412Z,4.48
2019-02-05T17:04:27.248Z,4.47
2019-02-05T17:06:56.945Z,4.43
2019-02-05T17:09:26.726Z,4.39
2019-02-05T17:11:56.963Z,4.33
2019-02-05T17:14:26.758Z,4.33
2019-02-05T17:16:56.434Z,4.34
2019-02-05T17:19:26.037Z,4.34
2019-02-05T17:21:55.931Z,4.34
2019-02-05T17:24:25.674Z,4.35
2019-02-05T17:26:55.394Z,4.35
2019-02-05T17:29:24.935Z,4.37
2019-02-05T17:31:54.503Z,4.36
2019-02-05T17:34:24.154Z,4.37
2019-02-05T17:36:54.632Z,4.35
2019-02-05T17:39:24.227Z,4.36
2019-02-05T17:41:53.950Z,4.36
2019-02-05T17:44:23.628Z,4.36
2019-02-05T17:46:53.590Z,4.36
2019-02-05T17:49:23.372Z,4.34
2019-02-05T17:51:53.489Z,4.36
2019-02-05T17:54:23.073Z,4.39
2019-02-05T17:56:52.686Z,4.41
2019-02-05T17:59:22.519Z,4.37
2019-02-05T18:01:52.268Z,4.36
2019-02-05T18:04:22.103Z,4.34
2019-02-05T18:06:51.755Z,4.35
2019-02-05T18:09:21.511Z,4.31
2019-02-05T18:11:51.112Z,4.35
2019-02-05T18:14:20.825Z,4.35
2019-02-05T18:16:50.850Z,4.33
2019-02-05T18:19:20.563Z,4.32
2019-02-05T18:21:50.129Z,4.32
2019-02-05T18:24:19.930Z,4.31
2019-02-05T18:26:49.583Z,4.31
2019-02-05T18:29:19.217Z,4.32
2019-02-05T18:31:48.982Z,4.34
2019-02-05T18:34:18.637Z,4.36
2019-02-05T18:36:48.348Z,4.35
2019-02-05T18:39:18.132Z,4.35
2019-02-05T18:41:47.773Z,4.33
2019-02-05T18:44:17.351Z,4.34
2019-02-05T18:46:46.950Z,4.32
2019-02-05T18:49:17.161Z,4.33
2019-02-05T18:51:47.096Z,4.32
2019-02-05T18:54:16.729Z,4.32
2019-02-05T18:56:46.460Z,4.33
2019-02-05T18:59:16.103Z,4.33
2019-02-05T19:01:45.873Z,4.36
2019-02-05T19:04:16.064Z,4.35
2019-02-05T19:06:45.742Z,4.32
2019-02-05T19:09:15.642Z,4.31
2019-02-05T19:11:45.500Z,4.31
2019-02-05T19:14:15.229Z,4.29
2019-02-05T19:16:44.936Z,4.28
2019-02-05T19:19:15.518Z,4.28
2019-02-05T19:21:45.317Z,4.31
2019-02-05T19:24:31.108Z,4.28
2019-02-05T19:27:00.980Z,4.27
2019-02-05T19:29:31.029Z,4.30
2019-02-05T19:32:00.807Z,4.29
2019-02-05T19:34:30.392Z,4.27
2019-02-05T19:37:00.144Z,4.28
2019-02-05T19:39:29.775Z,4.28
2019-02-05T19:41:59.647Z,4.30
2019-02-05T19:44:29.627Z,4.31
2019-02-05T19:47:02.879Z,4.30
2019-02-05T19:49:44.283Z,4.33
2019-02-05T19:52:14.056Z,4.33
2019-02-05T19:54:43.811Z,4.31
2019-02-05T19:57:13.793Z,4.30
2019-02-05T19:59:43.810Z,4.32
2019-02-05T20:02:13.617Z,4.33
2019-02-05T20:04:43.503Z,4.33
2019-02-05T20:07:14.260Z,4.37
2019-02-05T20:09:43.968Z,4.40
2019-02-05T20:12:15.003Z,4.41
2019-02-05T20:14:45.057Z,4.44
2019-02-05T20:17:14.857Z,4.43
2019-02-05T20:19:44.539Z,4.46
2019-02-05T20:22:14.389Z,4.52
2019-02-05T20:24:45.071Z,4.54
2019-02-05T20:27:14.872Z,4.53
2019-02-05T20:29:46.247Z,4.52
2019-02-05T20:32:16.420Z,4.53
2019-02-05T20:34:46.088Z,4.53
2019-02-05T20:37:15.805Z,4.54
2019-02-05T20:39:45.471Z,4.55
2019-02-05T20:42:15.223Z,4.52
2019-02-05T20:44:45.222Z,4.55
2019-02-05T20:47:15.129Z,4.55
2019-02-05T20:49:44.768Z,4.55
2019-02-05T20:52:14.575Z,4.57
2019-02-05T20:54:44.571Z,4.59
2019-02-05T20:57:14.327Z,4.63
2019-02-05T20:59:43.887Z,4.65
2019-02-05T21:02:13.941Z,4.62
2019-02-05T21:04:48.556Z,4.66
2019-02-05T21:07:15.068Z,4.64
2019-02-05T21:09:44.907Z,4.68
2019-02-05T21:12:14.799Z,4.70
2019-02-05T21:14:44.514Z,4.66
2019-02-05T21:17:14.492Z,4.64
2019-02-05T21:19:44.172Z,4.65
2019-02-05T21:22:13.893Z,4.66
2019-02-05T21:24:43.722Z,4.63
2019-02-05T21:27:13.565Z,4.60
2019-02-05T21:29:43.233Z,4.56
2019-02-05T21:32:13.191Z,4.58
2019-02-05T21:34:42.825Z,4.55
2019-02-05T21:37:12.466Z,4.54
2019-02-05T21:39:42.185Z,4.48
2019-02-05T21:42:11.788Z,4.43
2019-02-05T21:44:42.228Z,4.40
2019-02-05T21:47:12.243Z,4.44
2019-02-05T21:49:41.870Z,4.46
2019-02-05T21:52:11.408Z,4.42
2019-02-05T21:54:41.016Z,4.38
2019-02-05T21:57:10.760Z,4.34
2019-02-05T21:59:40.293Z,4.31
2019-02-05T22:02:11.002Z,4.31
2019-02-05T22:04:40.612Z,4.35
2019-02-05T22:07:10.250Z,4.38
2019-02-05T22:09:39.978Z,4.40
2019-02-05T22:12:09.487Z,4.44
2019-02-05T22:14:38.830Z,4.48
2019-02-05T22:17:08.121Z,4.52
2019-02-05T22:19:37.389Z,4.53
2019-02-05T22:22:06.671Z,4.53
2019-02-05T22:24:36.003Z,4.52
2019-02-05T22:27:05.691Z,4.49
2019-02-05T22:29:35.287Z,4.45
2019-02-05T22:32:04.624Z,4.36
2019-02-05T22:34:39.264Z,4.08
2019-02-05T22:37:05.119Z,3.89
2019-02-05T22:39:34.890Z,3.81
2019-02-05T22:42:04.514Z,3.81
2019-02-05T22:44:33.786Z,3.84
2019-02-05T22:47:03.028Z,3.83
2019-02-05T22:49:32.258Z,3.76
2019-02-05T22:52:01.547Z,3.67
2019-02-05T22:54:30.933Z,3.53
2019-02-05T22:57:00.118Z,3.39
2019-02-05T22:59:29.666Z,3.24
2019-02-05T23:02:02.818Z,3.09
2019-02-05T23:05:13.127Z,2.96
2019-02-05T23:07:42.474Z,2.89
2019-02-05T23:10:32.826Z,2.81
2019-02-05T23:13:05.549Z,2.75
2019-02-05T23:15:35.074Z,2.72
2019-02-05T23:18:05.224Z,2.68
2019-02-05T23:20:34.530Z,2.63
2019-02-05T23:23:03.978Z,2.59
2019-02-05T23:25:33.191Z,2.54
2019-02-05T23:28:02.671Z,2.54
2019-02-05T23:30:32.110Z,2.54
2019-02-05T23:33:01.590Z,2.51
2019-02-05T23:35:32.752Z,2.50
2019-02-05T23:38:02.257Z,2.49
2019-02-05T23:40:31.956Z,2.48
2019-02-05T23:43:01.242Z,2.46
2019-02-05T23:45:30.657Z,2.41
2019-02-05T23:47:59.902Z,2.35
2019-02-05T23:50:29.230Z,2.31
2019-02-05T23:52:58.666Z,2.25
2019-02-05T23:55:28.092Z,2.22
2019-02-05T23:57:57.349Z,2.16
